Time;durP1;ratioP1;P1;durP2;ratioP2;P2;SDS_P1;SDS_P2;PMS_P1;PMS_P2;Temp;Humidity;BMP_temperature;BMP_pressure;BME280_temperature;BME280_humidity;BME280_pressure;Samples;Min_cycle;Max_cycle;Signal;HPM_P1;HPM_P2
2023/03/15 00:01:15;;;;;;;12.37;4.07;;;5.10;99.90;;;;;;4879281;29;20228;-69
2023/03/15 00:03:44;;;;;;;11.03;4.37;;;5.10;99.90;;;;;;4879353;29;20220;-68
2023/03/15 00:06:15;;;;;;;31.63;14.97;;;5.10;99.90;;;;;;4879929;29;20248;-69
2023/03/15 00:08:46;;;;;;;9.03;3.70;;;5.10;99.90;;;;;;4879766;29;20685;-72
2023/03/15 00:11:15;;;;;;;10.67;3.50;;;5.20;99.90;;;;;;4880050;29;20211;-69
2023/03/15 00:13:45;;;;;;;6.63;2.87;;;5.20;99.90;;;;;;4879992;29;20200;-71
2023/03/15 00:16:16;;;;;;;8.43;3.50;;;5.10;99.90;;;;;;4879873;29;20200;-75
2023/03/15 00:18:45;;;;;;;13.23;4.37;;;5.20;99.90;;;;;;4861224;29;20217;-72
2023/03/15 00:21:16;;;;;;;6.33;3.40;;;5.20;99.90;;;;;;4861140;29;20232;-70
2023/03/15 00:23:44;;;;;;;12.30;3.37;;;5.30;99.90;;;;;;4861048;29;20219;-72
2023/03/15 00:26:13;;;;;;;9.97;3.27;;;5.30;99.90;;;;;;4861149;29;20306;-69
2023/03/15 00:28:42;;;;;;;8.97;3.70;;;5.30;99.90;;;;;;4861717;29;20204;-71
2023/03/15 00:31:15;;;;;;;12.23;3.30;;;5.20;99.90;;;;;;4871465;29;20779;-69
2023/03/15 00:33:45;;;;;;;7.97;3.23;;;5.30;99.90;;;;;;4878041;29;20222;-69
2023/03/15 00:36:16;;;;;;;12.07;3.00;;;5.30;99.90;;;;;;4844524;29;20215;-73
2023/03/15 00:38:45;;;;;;;8.27;3.00;;;5.30;99.90;;;;;;4859461;29;20302;-71
2023/03/15 00:41:15;;;;;;;10.20;2.97;;;5.30;99.90;;;;;;4864983;29;20280;-70
2023/03/15 00:43:45;;;;;;;9.63;3.57;;;5.20;99.90;;;;;;4879358;29;20610;-69
2023/03/15 00:46:14;;;;;;;11.90;3.67;;;5.30;99.90;;;;;;4877319;29;20717;-69
2023/03/15 00:48:43;;;;;;;7.07;2.80;;;5.40;99.90;;;;;;4878160;29;20212;-75
2023/03/15 00:51:13;;;;;;;13.33;3.20;;;5.40;99.90;;;;;;4879198;29;20203;-75
2023/03/15 00:53:45;;;;;;;9.60;3.23;;;5.40;99.90;;;;;;4878154;29;20644;-70
2023/03/15 00:56:16;;;;;;;6.17;2.70;;;5.40;99.90;;;;;;4868900;29;20671;-70
2023/03/15 00:58:45;;;;;;;6.47;2.73;;;5.40;99.90;;;;;;4860722;29;20275;-73
2023/03/15 01:01:16;;;;;;;7.10;3.20;;;5.30;99.90;;;;;;4859296;29;20633;-70
2023/03/15 01:03:45;;;;;;;6.93;3.43;;;5.30;99.90;;;;;;4859656;29;20215;-69
2023/03/15 01:06:16;;;;;;;22.70;12.60;;;5.30;99.90;;;;;;4860311;29;20224;-71
2023/03/15 01:08:46;;;;;;;10.90;3.33;;;5.20;99.90;;;;;;4859016;29;20233;-69
2023/03/15 01:11:17;;;;;;;8.90;2.90;;;5.20;99.90;;;;;;4860454;29;20205;-71
2023/03/15 01:13:46;;;;;;;3.57;2.37;;;5.20;99.90;;;;;;4860147;29;20232;-71
2023/03/15 01:16:16;;;;;;;10.07;2.90;;;5.20;99.90;;;;;;4874542;29;20208;-69
2023/03/15 01:18:44;;;;;;;9.30;3.00;;;5.20;99.90;;;;;;4878776;29;20213;-70
2023/03/15 01:21:15;;;;;;;7.50;2.67;;;5.10;99.90;;;;;;4877451;29;20222;-70
2023/03/15 01:23:48;;;;;;;4.67;2.67;;;5.10;99.90;;;;;;4877425;29;20215;-69
2023/03/15 01:26:18;;;;;;;6.10;2.60;;;5.10;99.90;;;;;;4878435;29;20302;-68
2023/03/15 01:28:47;;;;;;;5.67;2.80;;;5.10;99.90;;;;;;4878460;29;20671;-71
2023/03/15 01:31:18;;;;;;;9.40;3.43;;;5.10;99.90;;;;;;4877193;29;20212;-70
2023/03/15 01:33:47;;;;;;;6.63;2.80;;;5.10;99.90;;;;;;4877191;29;20207;-68
2023/03/15 01:36:16;;;;;;;9.60;2.87;;;5.20;99.90;;;;;;4877183;29;20218;-71
2023/03/15 01:38:48;;;;;;;5.40;2.73;;;5.10;99.90;;;;;;4878349;29;20580;-69
2023/03/15 01:41:20;;;;;;;8.77;3.13;;;5.20;99.90;;;;;;4877190;29;20214;-68
2023/03/15 01:43:49;;;;;;;39.27;18.80;;;5.10;99.90;;;;;;4876989;29;20206;-74
2023/03/15 01:46:24;;;;;;;5.97;3.27;;;5.10;99.90;;;;;;4877014;29;20599;-70
2023/03/15 01:49:02;;;;;;;8.13;2.87;;;5.10;99.90;;;;;;4876934;29;20274;-69
2023/03/15 01:51:40;;;;;;;8.87;2.80;;;5.20;99.90;;;;;;4877115;29;20203;-68
2023/03/15 01:54:17;;;;;;;6.43;2.83;;;5.20;99.90;;;;;;4876809;29;20234;-69
2023/03/15 01:56:50;;;;;;;6.43;2.70;;;5.20;99.90;;;;;;4876710;29;20219;-69
2023/03/15 01:59:25;;;;;;;8.37;3.80;;;5.20;99.90;;;;;;4877101;29;20206;-67
2023/03/15 02:01:54;;;;;;;9.77;3.20;;;5.10;99.90;;;;;;4876901;29;20234;-70
2023/03/15 02:04:28;;;;;;;6.30;3.07;;;5.20;99.90;;;;;;4876830;29;20217;-69
2023/03/15 02:07:01;;;;;;;12.73;2.87;;;5.20;99.90;;;;;;4876403;29;20251;-68
2023/03/15 02:09:42;;;;;;;11.83;2.53;;;5.20;99.90;;;;;;4876843;29;20214;-69
2023/03/15 02:12:11;;;;;;;7.30;2.97;;;5.20;99.90;;;;;;4876859;29;20286;-71
2023/03/15 02:14:42;;;;;;;9.33;2.90;;;5.10;99.90;;;;;;4877944;29;20196;-69
2023/03/15 02:17:15;;;;;;;6.33;2.97;;;5.20;99.90;;;;;;4876581;29;20301;-69
2023/03/15 02:19:55;;;;;;;10.03;2.70;;;5.20;99.90;;;;;;4876749;29;20298;-68
2023/03/15 02:22:36;;;;;;;5.80;2.87;;;5.30;99.90;;;;;;4876702;29;20708;-69
2023/03/15 02:25:17;;;;;;;10.27;3.10;;;5.30;99.90;;;;;;4876760;29;20255;-70
2023/03/15 02:27:47;;;;;;;9.90;3.33;;;5.30;99.90;;;;;;4877859;29;20200;-69
2023/03/15 02:30:16;;;;;;;6.53;2.87;;;5.30;99.90;;;;;;4876509;29;20215;-68
2023/03/15 02:32:45;;;;;;;7.20;2.90;;;5.30;99.90;;;;;;4877866;29;20206;-69
2023/03/15 02:35:23;;;;;;;8.20;2.90;;;5.20;99.90;;;;;;4876597;29;20575;-69
2023/03/15 02:37:53;;;;;;;11.60;3.23;;;5.20;99.90;;;;;;4861109;29;20203;-70
2023/03/15 02:40:23;;;;;;;8.13;2.80;;;5.20;99.90;;;;;;4877692;29;20270;-68
2023/03/15 02:42:59;;;;;;;11.13;3.00;;;5.20;99.90;;;;;;4877840;29;20281;-67
2023/03/15 02:45:31;;;;;;;9.40;3.10;;;5.30;99.90;;;;;;4877553;29;20222;-69
